WetterOnline ( http://www.wetteronline.de )

Wetter aktuell Schwäbische Alb

Aktuelles Wetter: Messstetten (900m)

6-stündlich | Neueste Meldungen
Ortszeit Temperatur Wetter
Do, 15.11. 1:00 -3.1° C Nebel
Mi, 14.11. 19:00 0.9° C wolkenlos
Mi, 14.11. 13:00 9.6° C leicht bewölkt
Mi, 14.11. 7:00 0.9° C bewölkt
Mi, 14.11. 1:00 -1.5° C wolkenlos
Di, 13.11. 19:00 4.5° C bewölkt
Di, 13.11. 13:00 7.8° C leichter Regen
Di, 13.11. 7:00 11.0° C bedeckt
Ortszeit Temperatur Wetter
Do, 15.11. 5:00 -1.4° C Nebel
Do, 15.11. 4:40 -1.5° C Nebel
Do, 15.11. 4:30 -1.9° C Nebel
Do, 15.11. 4:20 -1.9° C Nebel
Do, 15.11. 4:10 -2.4° C Nebel
Do, 15.11. 4:00 -2.5° C Nebel
Do, 15.11. 3:50 -2.5° C Nebel
Do, 15.11. 3:30 -2.8° C Nebel
Do, 15.11. 3:00 -2.3° C Nebel
Do, 15.11. 2:30 -3.2° C wolkenlos
Do, 15.11. 2:00 -3.7° C wolkenlos
Ortszeit Relative Feuchte Sichtweite
Do, 15.11. 1:00 98% 0.8 km
Mi, 14.11. 19:00 96% 8 km
Mi, 14.11. 13:00 75% 30 km
Mi, 14.11. 7:00 98% 30 km
Mi, 14.11. 1:00 97% 9 km
Di, 13.11. 19:00 100% 2.6 km
Di, 13.11. 13:00 85% 55 km
Di, 13.11. 7:00 78% 60 km
Ortszeit Relative Feuchte Sichtweite
Do, 15.11. 5:00 100% 100 m
Do, 15.11. 4:40 99% -
Do, 15.11. 4:30 99% 0.3 km
Do, 15.11. 4:20 99% -
Do, 15.11. 4:10 98% -
Do, 15.11. 4:00 98% 0.5 km
Do, 15.11. 3:50 98% -
Do, 15.11. 3:30 99% 0.3 km
Do, 15.11. 3:00 99% 0.3 km
Do, 15.11. 2:30 96% 15 km
Do, 15.11. 2:00 96% 14 km
Ortszeit Niederschlagsmenge Niederschlagsart
Do, 15.11. 1:00 0.0 l/m2 in 6 Std. -
Mi, 14.11. 19:00 0.0 l/m2 in 12 Std. -
Mi, 14.11. 13:00 0.0 l/m2 in 6 Std. -
Mi, 14.11. 7:00 0.0 l/m2 in 12 Std. -
Mi, 14.11. 1:00 0.0 l/m2 in 6 Std. -
Di, 13.11. 19:00 1 l/m2 in 12 Std. Regen
Di, 13.11. 13:00 1 l/m2 in 6 Std. Regen
Di, 13.11. 7:00 0.1 l/m2 in 12 Std. Regen
Ortszeit Niederschlagsmenge Niederschlagsart
Do, 15.11. 5:00 0.0 l/m2 in 1 Std. -
Do, 15.11. 4:40 keine Meldung -
Do, 15.11. 4:30 0.0 l/m2 in 1 Std. -
Do, 15.11. 4:20 keine Meldung -
Do, 15.11. 4:10 keine Meldung -
Do, 15.11. 4:00 0.0 l/m2 in 1 Std. -
Do, 15.11. 3:50 keine Meldung -
Do, 15.11. 3:30 0.0 l/m2 in 1 Std. -
Do, 15.11. 3:00 0.0 l/m2 in 1 Std. -
Do, 15.11. 2:30 0.0 l/m2 in 1 Std. -
Do, 15.11. 2:00 0.0 l/m2 in 1 Std. -
Ortszeit Stärke Spitze Richtung
km/h Bft. km/h Grad Sektor
Do, 15.11. 1:00 6 1 17 80° O
Mi, 14.11. 19:00 4 1 14 60° NO
Mi, 14.11. 13:00 7 2 25 120° SO
Mi, 14.11. 7:00 9 2 13 90° O
Mi, 14.11. 1:00 4 1 11 80° O
Di, 13.11. 19:00 4 1 22 210° SW
Di, 13.11. 13:00 7 2 32 230° SW
Di, 13.11. 7:00 11 2 33 270° W
Ortszeit Stärke Spitze Richtung
km/h Bft. km/h Grad Sektor
Do, 15.11. 5:00 4 1 11 80° O
Do, 15.11. 4:40 4 1 - 80° O
Do, 15.11. 4:30 7 2 11 90° O
Do, 15.11. 4:20 7 2 - 90° O
Do, 15.11. 4:10 7 2 - 100° O
Do, 15.11. 4:00 7 2 11 80° O
Do, 15.11. 3:50 7 2 - 80° O
Do, 15.11. 3:30 4 1 7 70° O
Do, 15.11. 3:00 7 2 11 90° O
Do, 15.11. 2:30 6 1 11 110° O
Do, 15.11. 2:00 2 1 9 80° O
Ortszeit Untergrenze Bedeckung Gattung
total tief tief mittel hoch
Do, 15.11. 1:00 <30 m 8/8 8/8 - - -
Mi, 14.11. 19:00 - 0/8 0/8 - - -
Mi, 14.11. 13:00 9000 m 7/8 0/8 - - -
Mi, 14.11. 7:00 5400 m 7/8 7/8 - - -
Mi, 14.11. 1:00 - 0/8 0/8 - - -
Di, 13.11. 19:00 30 m 7/8 7/8 - - -
Di, 13.11. 13:00 1230 m 8/8 8/8 - - -
Di, 13.11. 7:00 1260 m 8/8 8/8 - - -
Ortszeit Bedeckungsgrad in Achtel und Wolkenuntergrenze
Do, 15.11. 5:00 8(<30m)
Do, 15.11. 4:40 7(<30m)
Do, 15.11. 4:30 7(<30m)
Do, 15.11. 4:20 7(<30m)
Do, 15.11. 4:10 7(<30m)
Do, 15.11. 4:00 8(<30m)
Do, 15.11. 3:50 8(<30m)
Do, 15.11. 3:30 8(<30m)
Do, 15.11. 3:00 5(<30m)
Do, 15.11. 2:30 keine Wolken
Do, 15.11. 2:00 keine Wolken
Ortszeit Stationsdruck (hPa) Tendenz (hPa in 3 Std.)
Do, 15.11. 1:00 922 - 0,8
Mi, 14.11. 19:00 923 - 0,3
Mi, 14.11. 13:00 923 - 0,9
Mi, 14.11. 7:00 925 - 0,6
Mi, 14.11. 1:00 926 - 0,4
Di, 13.11. 19:00 926 + 1,1
Di, 13.11. 13:00 924 + 1,0
Di, 13.11. 7:00 920 + 1,1
Ortszeit Stationsdruck (hPa) Tendenz (hPa in 3 Std.)
Do, 15.11. 5:00 921 - 0,1
Do, 15.11. 4:40 921 keine Meldung
Do, 15.11. 4:30 921 - 0,1
Do, 15.11. 4:20 921 keine Meldung
Do, 15.11. 4:10 921 keine Meldung
Do, 15.11. 4:00 921 - 0,4
Do, 15.11. 3:50 921 keine Meldung
Do, 15.11. 3:30 921 - 0,6
Do, 15.11. 3:00 921 - 0,5
Do, 15.11. 2:30 921 - 0,6
Do, 15.11. 2:00 921 - 0,6
Ortszeit Schneehöhe (cm)
Do, 15.11. 1:00 0
Mi, 14.11. 19:00 0
Mi, 14.11. 13:00 0
Mi, 14.11. 7:00 0
Mi, 14.11. 1:00 0
Di, 13.11. 19:00 0
Di, 13.11. 13:00 0
Di, 13.11. 7:00 0
Ortszeit Schneehöhe (cm)
Do, 15.11. 5:00 0
Do, 15.11. 4:40 0
Do, 15.11. 4:30 0
Do, 15.11. 4:20 0
Do, 15.11. 4:10 0
Do, 15.11. 4:00 0
Do, 15.11. 3:50 0
Do, 15.11. 3:30 0
Do, 15.11. 3:00 0
Do, 15.11. 2:30 0
Do, 15.11. 2:00 0
Link zu dieser Seite / Seite empfehlen

Das Wetter in ...